createdAt,value
2018-01-08T00:00:04.296Z,99.99
2018-01-08T00:01:04.268Z,99.99
2018-01-08T00:02:04.235Z,99.99
2018-01-08T00:03:04.205Z,99.99
2018-01-08T00:04:04.173Z,99.99
2018-01-08T00:05:04.143Z,99.99
2018-01-08T00:06:04.113Z,99.99
2018-01-08T00:07:04.080Z,99.99
2018-01-08T00:08:04.050Z,99.99
2018-01-08T00:09:04.020Z,99.99
2018-01-08T00:10:03.992Z,99.99
2018-01-08T00:11:03.957Z,99.99
2018-01-08T00:12:03.926Z,99.99
2018-01-08T00:13:03.897Z,99.99
2018-01-08T00:14:03.865Z,99.99
2018-01-08T00:15:03.835Z,99.99
2018-01-08T00:16:03.804Z,99.99
2018-01-08T00:17:03.773Z,99.99
2018-01-08T00:18:03.742Z,99.99
2018-01-08T00:19:03.713Z,99.99
2018-01-08T00:20:03.681Z,99.99
2018-01-08T00:21:03.649Z,99.99
2018-01-08T00:22:03.619Z,99.99
2018-01-08T00:23:03.587Z,99.99
2018-01-08T00:24:03.707Z,99.99
2018-01-08T00:25:03.527Z,99.99
2018-01-08T00:26:03.496Z,99.99
2018-01-08T00:27:03.466Z,99.99
2018-01-08T00:28:03.433Z,99.99
2018-01-08T00:29:03.403Z,99.99
2018-01-08T00:30:03.372Z,99.99
2018-01-08T00:31:03.340Z,99.99
2018-01-08T00:32:03.311Z,99.99
2018-01-08T00:33:03.279Z,99.99
2018-01-08T00:34:03.249Z,99.99
2018-01-08T00:35:03.217Z,99.99
2018-01-08T00:36:03.187Z,99.99
2018-01-08T00:37:03.155Z,99.99
2018-01-08T00:38:03.126Z,99.99
2018-01-08T00:39:03.093Z,99.99
2018-01-08T00:40:03.063Z,99.99
2018-01-08T00:41:03.032Z,99.99
2018-01-08T00:42:03.002Z,99.99
2018-01-08T00:43:02.970Z,99.99
2018-01-08T00:44:02.939Z,99.99
2018-01-08T00:45:02.912Z,99.99
2018-01-08T00:46:02.879Z,99.99
2018-01-08T00:47:02.847Z,99.99
2018-01-08T00:48:02.816Z,99.99
2018-01-08T00:49:02.786Z,99.99
2018-01-08T00:50:02.754Z,99.99
2018-01-08T00:51:02.729Z,99.99
2018-01-08T00:52:02.693Z,99.99
2018-01-08T00:53:02.662Z,99.99
2018-01-08T00:54:02.631Z,99.99
2018-01-08T00:55:02.600Z,99.99
2018-01-08T00:56:02.568Z,99.99
2018-01-08T00:57:02.537Z,99.99
2018-01-08T00:58:02.507Z,99.99
2018-01-08T00:59:02.476Z,99.99
2018-01-08T01:00:02.448Z,99.99
2018-01-08T01:01:02.414Z,99.99
2018-01-08T01:02:02.384Z,99.99
2018-01-08T01:03:02.351Z,99.99
2018-01-08T01:04:02.321Z,99.99
2018-01-08T01:05:02.291Z,99.99
2018-01-08T01:06:02.260Z,99.99
2018-01-08T01:07:02.227Z,99.99
2018-01-08T01:08:02.448Z,99.99
2018-01-08T01:09:02.166Z,99.99
2018-01-08T01:10:02.136Z,99.99
2018-01-08T01:11:02.106Z,99.99
2018-01-08T01:12:02.073Z,99.99
2018-01-08T01:13:02.043Z,99.99
2018-01-08T01:14:02.012Z,99.99
2018-01-08T01:15:01.980Z,99.99
2018-01-08T01:16:01.950Z,99.99
2018-01-08T01:17:01.918Z,99.99
2018-01-08T01:18:01.888Z,99.99
2018-01-08T01:19:01.857Z,99.99
2018-01-08T01:20:01.827Z,99.99
2018-01-08T01:21:01.796Z,99.99
2018-01-08T01:22:01.764Z,99.99
2018-01-08T01:23:01.933Z,99.99
2018-01-08T01:24:01.703Z,99.99
2018-01-08T01:25:01.672Z,99.99
2018-01-08T01:26:01.640Z,99.99
2018-01-08T01:27:01.609Z,99.99
2018-01-08T01:28:01.578Z,99.99
2018-01-08T01:29:01.548Z,99.99
2018-01-08T01:30:01.518Z,99.99
2018-01-08T01:31:01.488Z,99.99
2018-01-08T01:32:01.454Z,99.99
2018-01-08T01:33:01.673Z,99.99
2018-01-08T01:34:01.392Z,99.99
2018-01-08T01:35:01.360Z,99.99
2018-01-08T01:36:01.329Z,99.99
2018-01-08T01:37:01.298Z,99.99
2018-01-08T01:38:01.268Z,99.99
2018-01-08T01:39:01.236Z,99.99
2018-01-08T01:40:01.204Z,99.99
2018-01-08T01:41:01.175Z,99.99
2018-01-08T01:42:01.144Z,99.99
2018-01-08T01:43:01.112Z,99.99
2018-01-08T01:44:01.081Z,99.99
2018-01-08T01:45:01.049Z,99.99
2018-01-08T01:46:01.019Z,99.99
2018-01-08T01:47:00.988Z,99.99
2018-01-08T01:48:00.955Z,99.99
2018-01-08T01:49:00.925Z,99.99
2018-01-08T01:50:00.895Z,99.99
2018-01-08T01:51:00.863Z,99.99
2018-01-08T01:52:00.832Z,99.99
2018-01-08T01:53:00.801Z,99.99
2018-01-08T01:54:00.770Z,99.99
2018-01-08T01:55:00.738Z,99.99
2018-01-08T01:56:00.705Z,99.99
2018-01-08T01:57:00.681Z,99.99
2018-01-08T01:58:00.648Z,99.99
2018-01-08T01:59:00.613Z,99.99
2018-01-08T02:00:00.582Z,99.99
2018-01-08T02:01:00.550Z,99.99
2018-01-08T02:02:00.520Z,99.99
2018-01-08T02:03:00.488Z,99.99
2018-01-08T02:04:00.457Z,99.99
2018-01-08T02:05:00.426Z,99.99
2018-01-08T02:06:00.394Z,99.99
2018-01-08T02:07:00.363Z,99.99
2018-01-08T02:08:00.335Z,99.99
2018-01-08T02:09:00.301Z,99.99
2018-01-08T02:10:00.270Z,99.99
2018-01-08T02:11:00.236Z,99.99
2018-01-08T02:12:00.205Z,99.99
2018-01-08T02:13:00.175Z,99.99
2018-01-08T02:14:00.397Z,99.99
2018-01-08T02:15:00.115Z,99.99
2018-01-08T02:16:00.082Z,99.99
2018-01-08T02:17:00.052Z,99.99
2018-01-08T02:18:00.019Z,99.99
2018-01-08T02:18:59.987Z,99.99
2018-01-08T02:19:59.956Z,99.99
2018-01-08T02:20:59.924Z,99.99
2018-01-08T02:21:59.893Z,99.99
2018-01-08T02:22:59.860Z,99.99
2018-01-08T02:23:59.836Z,99.99
2018-01-08T02:24:59.798Z,99.99
2018-01-08T02:25:59.767Z,99.99
2018-01-08T02:26:59.735Z,99.99
2018-01-08T02:27:59.705Z,99.99
2018-01-08T02:28:59.674Z,99.99
2018-01-08T02:29:59.645Z,99.99
2018-01-08T02:30:59.612Z,99.99
2018-01-08T02:31:59.578Z,99.99
2018-01-08T02:32:59.547Z,99.99
2018-01-08T02:33:59.516Z,99.99
2018-01-08T02:34:59.485Z,99.99
2018-01-08T02:35:59.453Z,99.99
2018-01-08T02:36:59.426Z,99.99
2018-01-08T02:37:59.390Z,99.99
2018-01-08T02:38:59.358Z,99.99
2018-01-08T02:39:59.327Z,99.99
2018-01-08T02:40:59.296Z,99.99
2018-01-08T02:41:59.266Z,99.99
2018-01-08T02:42:59.233Z,99.99
2018-01-08T02:43:59.201Z,99.99
2018-01-08T02:44:59.170Z,99.99
2018-01-08T02:45:59.140Z,99.99
2018-01-08T02:46:59.108Z,99.99
2018-01-08T02:47:59.076Z,99.99
2018-01-08T02:48:59.044Z,99.99
2018-01-08T02:49:59.012Z,99.99
2018-01-08T02:50:59.230Z,99.99
2018-01-08T02:51:58.949Z,99.99
2018-01-08T02:52:58.918Z,99.99
2018-01-08T02:53:58.886Z,99.99
2018-01-08T02:54:58.854Z,99.99
2018-01-08T02:55:58.822Z,99.99
2018-01-08T02:56:58.792Z,99.99
2018-01-08T02:57:58.760Z,99.99
2018-01-08T02:58:58.728Z,99.99
2018-01-08T02:59:58.696Z,99.99
2018-01-08T03:00:58.818Z,99.99
2018-01-08T03:01:58.634Z,99.99
2018-01-08T03:02:58.601Z,99.99
2018-01-08T03:03:58.575Z,99.99
2018-01-08T03:04:58.587Z,99.99
2018-01-08T03:05:58.508Z,99.99
2018-01-08T03:06:58.476Z,99.99
2018-01-08T03:07:58.444Z,99.99
2018-01-08T03:08:58.413Z,99.99
2018-01-08T03:09:58.382Z,99.99
2018-01-08T03:10:58.351Z,99.99
2018-01-08T03:11:58.317Z,99.99
2018-01-08T03:12:58.286Z,99.99
2018-01-08T03:13:58.255Z,99.99
2018-01-08T03:14:58.222Z,99.99
2018-01-08T03:15:58.191Z,99.99
2018-01-08T03:16:58.160Z,99.99
2018-01-08T03:17:58.128Z,99.99
2018-01-08T03:18:58.097Z,99.99
2018-01-08T03:19:58.063Z,99.99
2018-01-08T03:20:58.032Z,99.99
2018-01-08T03:21:58.002Z,99.99
2018-01-08T03:22:57.968Z,99.99
2018-01-08T03:23:57.938Z,99.99
2018-01-08T03:24:57.909Z,99.99
2018-01-08T03:25:57.874Z,99.99
2018-01-08T03:26:57.893Z,99.99
2018-01-08T03:27:57.811Z,99.99
2018-01-08T03:28:57.780Z,99.99
2018-01-08T03:29:57.747Z,99.99
2018-01-08T03:30:57.718Z,99.99
2018-01-08T03:31:57.684Z,99.99
2018-01-08T03:32:57.653Z,99.99
2018-01-08T03:33:57.622Z,99.99
2018-01-08T03:34:57.589Z,99.99
2018-01-08T03:35:57.557Z,99.99
2018-01-08T03:36:57.626Z,99.99
2018-01-08T03:37:57.494Z,99.99
2018-01-08T03:38:57.461Z,99.99
2018-01-08T03:39:57.431Z,99.99
2018-01-08T03:40:57.398Z,99.99
2018-01-08T03:41:57.371Z,99.99
2018-01-08T03:42:57.336Z,99.99
2018-01-08T03:43:57.304Z,99.99
2018-01-08T03:44:57.273Z,99.99
2018-01-08T03:45:57.241Z,99.99
2018-01-08T03:46:57.208Z,99.99
2018-01-08T03:47:57.177Z,99.99
2018-01-08T03:48:57.146Z,99.99
2018-01-08T03:49:57.364Z,99.99
2018-01-08T03:50:57.081Z,99.99
2018-01-08T03:51:57.049Z,99.99
2018-01-08T03:52:57.019Z,99.99
2018-01-08T03:53:56.988Z,99.99
2018-01-08T03:54:57.204Z,99.99
2018-01-08T03:55:56.923Z,99.99
2018-01-08T03:56:56.891Z,99.99
2018-01-08T03:57:56.860Z,99.99
2018-01-08T03:58:56.826Z,99.99
2018-01-08T03:59:56.795Z,99.99
2018-01-08T04:00:56.764Z,99.99
2018-01-08T04:01:56.732Z,99.99
2018-01-08T04:02:56.700Z,99.99
2018-01-08T04:03:56.671Z,99.99
2018-01-08T04:04:56.637Z,99.99
2018-01-08T04:05:56.606Z,99.99
2018-01-08T04:06:56.572Z,99.99
2018-01-08T04:07:56.541Z,99.99
2018-01-08T04:08:56.510Z,99.99
2018-01-08T04:09:56.478Z,99.99
2018-01-08T04:10:56.445Z,99.99
2018-01-08T04:11:56.413Z,99.99
2018-01-08T04:12:56.383Z,99.99
2018-01-08T04:13:56.350Z,99.99
2018-01-08T04:14:56.319Z,99.99
2018-01-08T04:15:56.286Z,99.99
2018-01-08T04:16:56.256Z,99.99
2018-01-08T04:17:56.223Z,99.99
2018-01-08T04:18:56.192Z,99.99
2018-01-08T04:19:56.160Z,99.99
2018-01-08T04:20:56.128Z,99.99
2018-01-08T04:21:56.097Z,99.99
2018-01-08T04:22:56.064Z,99.99
2018-01-08T04:23:56.032Z,99.99
2018-01-08T04:24:56.000Z,99.99
2018-01-08T04:25:55.970Z,99.99
2018-01-08T04:26:55.936Z,99.99
2018-01-08T04:27:55.905Z,99.99
2018-01-08T04:28:55.873Z,99.99
2018-01-08T04:29:55.843Z,99.99
2018-01-08T04:30:55.810Z,99.99
2018-01-08T04:31:55.778Z,99.99
2018-01-08T04:32:55.746Z,99.99
2018-01-08T04:33:55.718Z,99.99
2018-01-08T04:34:55.687Z,99.99
2018-01-08T04:35:55.650Z,99.99
2018-01-08T04:36:55.619Z,99.99
2018-01-08T04:37:55.588Z,99.99
2018-01-08T04:38:55.555Z,99.99
2018-01-08T04:39:55.523Z,99.99
2018-01-08T04:40:55.492Z,99.99
2018-01-08T04:41:55.460Z,99.99
2018-01-08T04:42:55.428Z,99.99
2018-01-08T04:43:55.395Z,99.99
2018-01-08T04:44:55.365Z,99.99
2018-01-08T04:45:55.336Z,99.99
2018-01-08T04:46:55.301Z,99.99
2018-01-08T04:47:55.269Z,99.99
2018-01-08T04:48:55.238Z,99.99
2018-01-08T04:49:55.205Z,99.99
2018-01-08T04:50:55.274Z,99.99
2018-01-08T04:51:55.142Z,99.99
2018-01-08T04:52:55.111Z,99.99
2018-01-08T04:53:55.078Z,99.99
2018-01-08T04:54:55.067Z,99.99
2018-01-08T04:55:55.015Z,99.99
2018-01-08T04:56:54.983Z,99.99
2018-01-08T04:57:54.952Z,99.99
2018-01-08T04:58:54.920Z,99.99
2018-01-08T04:59:54.887Z,99.99
2018-01-08T05:00:55.106Z,99.99
2018-01-08T05:01:54.825Z,99.99
2018-01-08T05:02:54.792Z,99.99
2018-01-08T05:03:54.759Z,99.99
2018-01-08T05:04:54.728Z,99.99
2018-01-08T05:05:54.696Z,99.99
2018-01-08T05:06:54.665Z,99.99
2018-01-08T05:07:54.634Z,99.99
2018-01-08T05:08:54.604Z,99.99
2018-01-08T05:09:54.571Z,99.99
2018-01-08T05:10:54.538Z,99.99
2018-01-08T05:11:54.507Z,99.99
2018-01-08T05:12:54.573Z,99.99
2018-01-08T05:13:54.442Z,99.99
2018-01-08T05:14:54.410Z,99.99
2018-01-08T05:15:54.379Z,99.99
2018-01-08T05:16:54.346Z,99.99
2018-01-08T05:17:54.414Z,99.99
2018-01-08T05:18:54.283Z,99.99
2018-01-08T05:19:54.251Z,99.99
2018-01-08T05:20:54.219Z,99.99
2018-01-08T05:21:54.188Z,99.99
2018-01-08T05:22:54.155Z,99.99
2018-01-08T05:23:54.146Z,99.99
2018-01-08T05:24:54.092Z,99.99
2018-01-08T05:25:54.061Z,99.99
2018-01-08T05:26:54.027Z,99.99
2018-01-08T05:27:53.995Z,99.99
2018-01-08T05:28:53.964Z,99.99
2018-01-08T05:29:53.933Z,99.99
2018-01-08T05:30:53.899Z,99.99
2018-01-08T05:31:53.867Z,99.99
2018-01-08T05:32:53.986Z,99.99
2018-01-08T05:33:53.805Z,99.99
2018-01-08T05:34:53.771Z,99.99
2018-01-08T05:35:53.740Z,99.99
2018-01-08T05:36:53.708Z,99.99
2018-01-08T05:37:53.681Z,99.99
2018-01-08T05:38:53.645Z,99.99
2018-01-08T05:39:53.613Z,99.99
2018-01-08T05:40:53.580Z,99.99
2018-01-08T05:41:53.549Z,99.99
2018-01-08T05:42:53.517Z,99.99
2018-01-08T05:43:53.484Z,99.99
2018-01-08T05:44:53.453Z,99.99
2018-01-08T05:45:53.423Z,99.99
2018-01-08T05:46:53.433Z,99.99
2018-01-08T05:47:53.359Z,99.99
2018-01-08T05:48:53.330Z,99.99
2018-01-08T05:49:53.294Z,99.99
2018-01-08T05:50:53.262Z,99.99
2018-01-08T05:51:53.235Z,99.99
2018-01-08T05:52:53.200Z,99.99
2018-01-08T05:53:53.166Z,99.99
2018-01-08T05:54:53.134Z,99.99
2018-01-08T05:55:53.103Z,99.99
2018-01-08T05:56:53.072Z,99.99
2018-01-08T05:57:53.040Z,99.99
2018-01-08T05:58:53.006Z,99.99
2018-01-08T05:59:52.975Z,99.99
2018-01-08T06:00:52.944Z,99.99
2018-01-08T06:01:52.912Z,99.99
2018-01-08T06:02:52.879Z,99.99
2018-01-08T06:03:52.848Z,99.99
2018-01-08T06:04:52.966Z,99.99
2018-01-08T06:05:52.784Z,99.99
2018-01-08T06:06:52.752Z,99.99
2018-01-08T06:07:52.720Z,99.99
2018-01-08T06:08:52.688Z,99.99
2018-01-08T06:09:52.656Z,99.99
2018-01-08T06:10:52.624Z,99.99
2018-01-08T06:11:52.593Z,99.99
2018-01-08T06:12:52.560Z,99.99
2018-01-08T06:13:52.530Z,99.99
2018-01-08T06:14:52.497Z,99.99
2018-01-08T06:15:52.465Z,99.99
2018-01-08T06:16:52.432Z,99.99
2018-01-08T06:17:52.401Z,99.99
2018-01-08T06:18:52.374Z,99.99
2018-01-08T06:19:52.488Z,99.99
2018-01-08T06:20:52.305Z,99.99
2018-01-08T06:21:52.272Z,99.99
2018-01-08T06:22:52.241Z,99.99
2018-01-08T06:23:52.208Z,99.99
2018-01-08T06:24:52.178Z,99.99
2018-01-08T06:25:52.146Z,99.99
2018-01-08T06:26:52.112Z,99.99
2018-01-08T06:27:52.082Z,99.99
2018-01-08T06:28:52.048Z,99.99
2018-01-08T06:29:52.019Z,99.99
2018-01-08T06:30:51.984Z,99.99
2018-01-08T06:31:51.953Z,99.99
2018-01-08T06:32:51.946Z,99.99
2018-01-08T06:33:51.889Z,99.99
2018-01-08T06:34:51.856Z,99.99
2018-01-08T06:35:51.825Z,99.99
2018-01-08T06:36:51.793Z,99.99
2018-01-08T06:37:51.762Z,99.99
2018-01-08T06:38:51.728Z,99.99
2018-01-08T06:39:51.697Z,99.99
2018-01-08T06:40:51.915Z,99.99
2018-01-08T06:41:51.632Z,99.99
2018-01-08T06:42:51.600Z,99.99
2018-01-08T06:43:51.568Z,99.99
2018-01-08T06:44:51.539Z,99.99
2018-01-08T06:45:51.503Z,99.99
2018-01-08T06:46:51.471Z,99.99
2018-01-08T06:47:51.441Z,99.99
2018-01-08T06:48:51.408Z,99.99
2018-01-08T06:49:51.376Z,99.99
2018-01-08T06:50:51.342Z,99.99
2018-01-08T06:51:51.311Z,99.99
2018-01-08T06:52:51.279Z,99.99
2018-01-08T06:53:51.248Z,99.99
2018-01-08T06:54:51.215Z,99.99
2018-01-08T06:55:51.432Z,99.99
2018-01-08T06:56:51.150Z,99.99
2018-01-08T06:57:51.119Z,99.99
2018-01-08T06:58:51.088Z,99.99
2018-01-08T06:59:51.056Z,99.99
2018-01-08T07:00:51.023Z,99.99
2018-01-08T07:01:50.991Z,99.99
2018-01-08T07:02:50.962Z,99.99
2018-01-08T07:03:50.925Z,99.99
2018-01-08T07:04:50.893Z,99.99
2018-01-08T07:05:50.861Z,99.99
2018-01-08T07:06:50.828Z,99.99
2018-01-08T07:07:50.948Z,99.99
2018-01-08T07:08:50.765Z,99.99
2018-01-08T07:09:50.733Z,99.99
2018-01-08T07:10:50.701Z,99.99
2018-01-08T07:11:50.670Z,99.99
2018-01-08T07:12:50.638Z,99.99
2018-01-08T07:13:50.605Z,99.99
2018-01-08T07:14:50.572Z,99.99
2018-01-08T07:15:50.540Z,99.99
2018-01-08T07:16:50.507Z,99.99
2018-01-08T07:17:50.476Z,99.99
2018-01-08T07:18:50.442Z,99.99
2018-01-08T07:19:50.411Z,99.99
2018-01-08T07:20:50.378Z,99.99
2018-01-08T07:21:50.355Z,99.99
2018-01-08T07:22:50.315Z,99.99
2018-01-08T07:23:50.283Z,99.99
2018-01-08T07:24:50.252Z,99.99
2018-01-08T07:25:50.218Z,99.99
2018-01-08T07:26:50.186Z,99.99
2018-01-08T07:27:50.153Z,99.99
2018-01-08T07:28:50.121Z,99.99
2018-01-08T07:29:50.090Z,99.99
2018-01-08T07:30:50.058Z,99.99
2018-01-08T07:31:50.028Z,99.99
2018-01-08T07:32:49.994Z,99.99
2018-01-08T07:33:49.962Z,99.99
2018-01-08T07:34:49.936Z,99.99
2018-01-08T07:35:49.896Z,99.99
2018-01-08T07:36:49.865Z,99.99
2018-01-08T07:37:49.933Z,99.99
2018-01-08T07:38:49.799Z,99.99
2018-01-08T07:39:49.768Z,99.99
2018-01-08T07:40:49.742Z,99.99
2018-01-08T07:41:49.705Z,99.99
2018-01-08T07:42:49.671Z,99.99
2018-01-08T07:43:49.640Z,99.99
2018-01-08T07:44:49.608Z,99.99
2018-01-08T07:45:49.575Z,99.99
2018-01-08T07:46:49.551Z,99.99
2018-01-08T07:47:49.512Z,99.99
2018-01-08T07:48:49.479Z,99.99
2018-01-08T07:49:49.449Z,99.99
2018-01-08T07:50:49.415Z,99.99
2018-01-08T07:51:49.382Z,99.99
2018-01-08T07:52:49.352Z,99.99
2018-01-08T07:53:49.320Z,99.99
2018-01-08T07:54:49.288Z,99.99
2018-01-08T07:55:49.255Z,99.99
2018-01-08T07:56:49.222Z,99.99
2018-01-08T07:57:49.192Z,99.99
2018-01-08T07:58:49.409Z,99.99
2018-01-08T07:59:49.125Z,99.99
2018-01-08T08:00:49.094Z,99.99
2018-01-08T08:01:49.064Z,99.99
2018-01-08T08:02:49.030Z,99.99
2018-01-08T08:03:48.998Z,99.99
2018-01-08T08:04:48.966Z,99.99
2018-01-08T08:05:48.935Z,99.99
2018-01-08T08:06:48.901Z,99.99
2018-01-08T08:07:48.869Z,99.99
2018-01-08T08:08:48.838Z,99.99
2018-01-08T08:09:48.807Z,99.99
2018-01-08T08:10:48.776Z,99.99
2018-01-08T08:11:48.741Z,99.99
2018-01-08T08:12:48.709Z,99.99
2018-01-08T08:13:48.678Z,99.99
2018-01-08T08:14:48.645Z,99.99
2018-01-08T08:15:48.613Z,99.99
2018-01-08T08:16:48.582Z,99.99
2018-01-08T08:17:48.549Z,99.99
2018-01-08T08:18:48.517Z,99.99
2018-01-08T08:19:48.484Z,99.99
2018-01-08T08:20:48.454Z,99.99
2018-01-08T08:21:48.421Z,99.99
2018-01-08T08:22:48.389Z,99.99
2018-01-08T08:23:48.356Z,99.99
2018-01-08T08:24:48.326Z,99.99
2018-01-08T08:25:48.292Z,99.99
2018-01-08T08:26:48.261Z,99.99
2018-01-08T08:27:48.228Z,99.99
2018-01-08T08:28:48.197Z,99.99
2018-01-08T08:29:48.165Z,99.99
2018-01-08T08:30:48.132Z,99.99
2018-01-08T08:31:48.102Z,99.99
2018-01-08T08:32:48.320Z,99.99
2018-01-08T08:33:48.038Z,99.99
2018-01-08T08:34:48.006Z,99.99
2018-01-08T08:35:47.974Z,99.99
2018-01-08T08:36:47.942Z,99.99
2018-01-08T08:37:47.911Z,99.99
2018-01-08T08:38:47.877Z,99.99
2018-01-08T08:39:47.845Z,99.99
2018-01-08T08:40:47.815Z,99.99
2018-01-08T08:41:47.783Z,99.99
2018-01-08T08:42:47.901Z,99.99
2018-01-08T08:43:47.718Z,99.99
2018-01-08T08:44:47.687Z,99.99
2018-01-08T08:45:47.656Z,99.99
2018-01-08T08:46:47.624Z,99.99
2018-01-08T08:47:47.592Z,99.99
2018-01-08T08:48:47.561Z,99.99
2018-01-08T08:49:47.529Z,99.99
2018-01-08T08:50:47.497Z,99.99
2018-01-08T08:51:47.465Z,99.99
2018-01-08T08:52:47.434Z,99.99
2018-01-08T08:53:47.404Z,99.99
2018-01-08T08:54:47.371Z,99.99
2018-01-08T08:55:47.340Z,99.99
2018-01-08T08:56:47.309Z,99.99
2018-01-08T08:57:47.278Z,99.99
2018-01-08T08:58:47.247Z,99.99
2018-01-08T08:59:47.217Z,99.99
2018-01-08T09:00:47.189Z,99.99
2018-01-08T09:01:47.172Z,99.99
2018-01-08T09:02:47.126Z,99.99
2018-01-08T09:03:47.096Z,99.99
2018-01-08T09:04:47.067Z,99.99
2018-01-08T09:05:47.041Z,99.99
2018-01-08T09:06:47.009Z,99.99
2018-01-08T09:07:46.980Z,99.46
2018-01-08T09:08:46.952Z,99.27
2018-01-08T09:09:46.924Z,97.76
2018-01-08T09:10:46.893Z,98.61
2018-01-08T09:11:46.865Z,97.67
2018-01-08T09:12:46.838Z,97.95
2018-01-08T09:13:46.809Z,98.04
2018-01-08T09:14:46.780Z,97.00
2018-01-08T09:15:46.751Z,96.53
2018-01-08T09:16:46.724Z,97.48
2018-01-08T09:17:46.693Z,97.29
2018-01-08T09:18:46.665Z,97.48
2018-01-08T09:19:46.886Z,97.29
2018-01-08T09:20:46.606Z,97.19
2018-01-08T09:21:46.576Z,98.04
2018-01-08T09:22:46.547Z,98.04
2018-01-08T09:23:46.517Z,98.14
2018-01-08T09:24:46.738Z,98.61
2018-01-08T09:25:46.458Z,98.61
2018-01-08T09:26:46.428Z,98.42
2018-01-08T09:27:46.397Z,98.99
2018-01-08T09:28:46.367Z,98.71
2018-01-08T09:29:46.337Z,98.90
2018-01-08T09:30:46.307Z,98.42
2018-01-08T09:31:46.276Z,98.71
2018-01-08T09:32:46.247Z,98.42
2018-01-08T09:33:46.216Z,98.52
2018-01-08T09:34:46.185Z,99.18
2018-01-08T09:35:46.155Z,98.71
2018-01-08T09:36:46.126Z,98.71
2018-01-08T09:37:46.095Z,98.52
2018-01-08T09:38:46.065Z,98.52
2018-01-08T09:39:46.285Z,98.23
2018-01-08T09:40:46.003Z,98.90
2018-01-08T09:41:45.974Z,98.61
2018-01-08T09:42:45.942Z,98.52
2018-01-08T09:43:45.911Z,99.18
2018-01-08T09:44:45.983Z,98.99
2018-01-08T09:45:45.852Z,98.90
2018-01-08T09:46:45.819Z,98.23
2018-01-08T09:47:45.790Z,98.80
2018-01-08T09:48:45.760Z,98.52
2018-01-08T09:49:45.730Z,98.80
2018-01-08T09:50:45.697Z,98.52
2018-01-08T09:51:45.667Z,98.33
2018-01-08T09:52:45.638Z,98.61
2018-01-08T09:53:45.608Z,99.08
2018-01-08T09:54:45.725Z,98.90
2018-01-08T09:55:45.545Z,98.61
2018-01-08T09:56:45.516Z,98.80
2018-01-08T09:57:45.485Z,98.71
2018-01-08T09:58:45.456Z,97.67
2018-01-08T09:59:45.973Z,98.04
2018-01-08T10:00:45.392Z,97.95
2018-01-08T10:01:45.363Z,98.61
2018-01-08T10:02:45.331Z,97.76
2018-01-08T10:03:45.301Z,97.76
2018-01-08T10:04:45.270Z,97.57
2018-01-08T10:05:45.241Z,98.04
2018-01-08T10:06:45.208Z,98.14
2018-01-08T10:07:45.180Z,97.57
2018-01-08T10:08:45.150Z,97.76
2018-01-08T10:09:45.119Z,98.04
2018-01-08T10:10:45.089Z,97.19
2018-01-08T10:11:45.058Z,97.43
2018-01-08T10:12:45.027Z,97.24
2018-01-08T10:13:45.003Z,97.24
2018-01-08T10:14:44.966Z,96.49
2018-01-08T10:15:44.935Z,97.15
2018-01-08T10:16:44.905Z,96.68
2018-01-08T10:17:44.874Z,96.20
2018-01-08T10:18:44.844Z,96.39
2018-01-08T10:19:44.812Z,97.43
2018-01-08T10:20:44.784Z,97.34
2018-01-08T10:21:44.752Z,97.05
2018-01-08T10:22:44.722Z,97.34
2018-01-08T10:23:44.691Z,97.05
2018-01-08T10:24:44.685Z,97.53
2018-01-08T10:25:44.631Z,97.15
2018-01-08T10:26:44.601Z,97.34
2018-01-08T10:27:44.570Z,97.53
2018-01-08T10:28:44.791Z,96.77
2018-01-08T10:29:44.513Z,95.64
2018-01-08T10:30:44.482Z,94.60
2018-01-08T10:31:44.454Z,93.56
2018-01-08T10:32:44.427Z,93.94
2018-01-08T10:33:44.649Z,93.09
2018-01-08T10:34:44.369Z,93.84
2018-01-08T10:35:44.341Z,93.09
2018-01-08T10:36:44.314Z,92.43
2018-01-08T10:37:44.288Z,91.67
2018-01-08T10:38:44.260Z,91.63
2018-01-08T10:39:44.241Z,91.53
2018-01-08T10:40:44.208Z,91.53
2018-01-08T10:41:44.182Z,90.87
2018-01-08T10:42:44.154Z,89.92
2018-01-08T10:43:44.128Z,90.77
2018-01-08T10:44:44.103Z,90.11
2018-01-08T10:45:44.229Z,90.11
2018-01-08T10:46:44.051Z,89.64
2018-01-08T10:47:44.027Z,88.42
2018-01-08T10:48:44.002Z,87.47
2018-01-08T10:49:43.977Z,88.23
2018-01-08T10:50:43.950Z,87.47
2018-01-08T10:51:43.925Z,88.42
2018-01-08T10:52:43.901Z,88.42
2018-01-08T10:53:43.876Z,88.60
2018-01-08T10:54:43.851Z,86.90
2018-01-08T10:55:43.825Z,87.56
2018-01-08T10:56:43.802Z,87.85
2018-01-08T10:57:43.778Z,86.99
2018-01-08T10:58:43.752Z,86.05
2018-01-08T10:59:43.729Z,86.05
2018-01-08T11:00:43.704Z,86.05
2018-01-08T11:01:43.680Z,84.54
2018-01-08T11:02:43.654Z,84.35
2018-01-08T11:03:43.632Z,83.88
2018-01-08T11:04:43.607Z,84.64
2018-01-08T11:05:43.836Z,84.92
2018-01-08T11:06:43.558Z,85.58
2018-01-08T11:07:43.536Z,86.43
2018-01-08T11:08:43.512Z,85.72
2018-01-08T11:09:43.488Z,84.92
2018-01-08T11:10:43.463Z,84.77
2018-01-08T11:11:43.440Z,86.00
2018-01-08T11:12:43.417Z,86.57
2018-01-08T11:13:43.393Z,84.68
2018-01-08T11:14:43.370Z,84.11
2018-01-08T11:15:43.346Z,84.30
2018-01-08T11:16:43.322Z,84.86
2018-01-08T11:17:43.301Z,83.92
2018-01-08T11:18:43.274Z,83.83
2018-01-08T11:19:43.252Z,83.36
2018-01-08T11:20:43.228Z,81.56
2018-01-08T11:21:43.209Z,81.74
2018-01-08T11:22:43.181Z,82.41
2018-01-08T11:23:43.158Z,81.46
2018-01-08T11:24:43.138Z,81.37
2018-01-08T11:25:43.111Z,80.33
2018-01-08T11:26:43.089Z,80.99
2018-01-08T11:27:43.064Z,81.27
2018-01-08T11:28:43.039Z,82.03
2018-01-08T11:29:43.016Z,81.56
2018-01-08T11:30:42.994Z,79.86
2018-01-08T11:31:42.970Z,79.38
2018-01-08T11:32:42.947Z,79.76
2018-01-08T11:33:42.926Z,79.86
2018-01-08T11:34:42.899Z,80.62
2018-01-08T11:35:43.127Z,80.43
2018-01-08T11:36:42.852Z,79.95
2018-01-08T11:37:42.829Z,79.95
2018-01-08T11:38:42.806Z,79.76
2018-01-08T11:39:42.782Z,80.62
2018-01-08T11:40:42.758Z,80.71
2018-01-08T11:41:42.734Z,79.95
2018-01-08T11:42:42.711Z,81.65
2018-01-08T11:43:42.687Z,80.46
2018-01-08T11:44:42.664Z,80.05
2018-01-08T11:45:42.641Z,79.95
2018-01-08T11:46:42.616Z,80.62
2018-01-08T11:47:42.593Z,78.95
2018-01-08T11:48:42.570Z,78.76
2018-01-08T11:49:42.547Z,79.90
2018-01-08T11:50:42.523Z,79.90
2018-01-08T11:51:42.499Z,79.33
2018-01-08T11:52:42.477Z,77.72
2018-01-08T11:53:42.451Z,77.25
2018-01-08T11:54:42.426Z,77.34
2018-01-08T11:55:42.404Z,78.76
2018-01-08T11:56:42.381Z,78.10
2018-01-08T11:57:42.357Z,76.68
2018-01-08T11:58:42.333Z,75.17
2018-01-08T11:59:42.309Z,75.17
2018-01-08T12:00:42.287Z,74.22
2018-01-08T12:01:42.262Z,74.69
2018-01-08T12:02:42.238Z,75.55
2018-01-08T12:03:42.214Z,72.71
2018-01-08T12:04:42.340Z,72.43
2018-01-08T12:05:42.167Z,72.24
2018-01-08T12:06:42.144Z,72.24
2018-01-08T12:07:42.120Z,71.01
2018-01-08T12:08:42.096Z,70.82
2018-01-08T12:09:42.322Z,71.11
2018-01-08T12:10:42.046Z,71.39
2018-01-08T12:11:42.025Z,70.92
2018-01-08T12:12:41.999Z,70.82
2018-01-08T12:13:41.981Z,70.82
2018-01-08T12:14:41.951Z,69.49
2018-01-08T12:15:41.926Z,69.87
2018-01-08T12:16:41.902Z,70.82
2018-01-08T12:17:41.879Z,70.82
2018-01-08T12:18:41.856Z,70.92
2018-01-08T12:19:41.830Z,71.11
2018-01-08T12:20:41.805Z,69.97
2018-01-08T12:21:41.794Z,70.73
2018-01-08T12:22:41.757Z,69.97
2018-01-08T12:23:41.732Z,70.44
2018-01-08T12:24:41.709Z,72.43
2018-01-08T12:25:41.936Z,72.71
2018-01-08T12:26:41.660Z,70.82
2018-01-08T12:27:41.636Z,70.95
2018-01-08T12:28:41.613Z,70.29
2018-01-08T12:29:41.589Z,69.40
2018-01-08T12:30:41.564Z,69.40
2018-01-08T12:31:41.540Z,68.93
2018-01-08T12:32:41.517Z,69.31
2018-01-08T12:33:41.497Z,70.06
2018-01-08T12:34:41.468Z,70.76
2018-01-08T12:35:41.594Z,69.44
2018-01-08T12:36:41.419Z,70.01
2018-01-08T12:37:41.395Z,70.39
2018-01-08T12:38:41.371Z,71.67
2018-01-08T12:39:41.348Z,70.57
2018-01-08T12:40:41.324Z,69.82
2018-01-08T12:41:41.300Z,69.25
2018-01-08T12:42:41.274Z,68.93
2018-01-08T12:43:41.252Z,68.93
2018-01-08T12:44:41.228Z,69.97
2018-01-08T12:45:41.208Z,70.48
2018-01-08T12:46:41.179Z,69.40
2018-01-08T12:47:41.156Z,68.36
2018-01-08T12:48:41.132Z,68.27
2018-01-08T12:49:41.107Z,68.27
2018-01-08T12:50:41.084Z,67.64
2018-01-08T12:51:41.058Z,67.64